sensor_id;sensor_type;location;lat;lon;timestamp;temperature;humidity
11840;DHT22;5979;50.800;4.904;2023-10-08T00:01:15;16.30;99.90
11840;DHT22;5979;50.800;4.904;2023-10-08T00:03:50;16.20;99.90
11840;DHT22;5979;50.800;4.904;2023-10-08T00:06:21;16.20;99.90
11840;DHT22;5979;50.800;4.904;2023-10-08T00:08:47;16.20;99.90
11840;DHT22;5979;50.800;4.904;2023-10-08T00:11:13;16.20;99.90
11840;DHT22;5979;50.800;4.904;2023-10-08T00:13:41;16.20;99.90
11840;DHT22;5979;50.800;4.904;2023-10-08T00:16:12;16.20;99.90
11840;DHT22;5979;50.800;4.904;2023-10-08T00:18:41;16.20;99.90
11840;DHT22;5979;50.800;4.904;2023-10-08T00:21:14;16.10;99.90
11840;DHT22;5979;50.800;4.904;2023-10-08T00:23:40;16.10;99.90
11840;DHT22;5979;50.800;4.904;2023-10-08T00:26:13;16.10;99.90
11840;DHT22;5979;50.800;4.904;2023-10-08T00:28:44;16.10;99.90
11840;DHT22;5979;50.800;4.904;2023-10-08T00:31:15;16.10;99.90
11840;DHT22;5979;50.800;4.904;2023-10-08T00:33:43;16.10;99.90
11840;DHT22;5979;50.800;4.904;2023-10-08T00:36:10;16.10;99.90
11840;DHT22;5979;50.800;4.904;2023-10-08T00:38:52;16.10;99.90
11840;DHT22;5979;50.800;4.904;2023-10-08T00:41:24;16.00;99.90
11840;DHT22;5979;50.800;4.904;2023-10-08T00:43:54;16.00;99.90
11840;DHT22;5979;50.800;4.904;2023-10-08T00:46:25;16.00;99.90
11840;DHT22;5979;50.800;4.904;2023-10-08T00:49:17;16.00;99.90
11840;DHT22;5979;50.800;4.904;2023-10-08T00:51:47;16.00;99.90
11840;DHT22;5979;50.800;4.904;2023-10-08T00:54:21;16.00;99.90
11840;DHT22;5979;50.800;4.904;2023-10-08T00:56:50;15.90;99.90
11840;DHT22;5979;50.800;4.904;2023-10-08T00:59:22;15.90;99.90
11840;DHT22;5979;50.800;4.904;2023-10-08T01:01:50;15.90;99.90
11840;DHT22;5979;50.800;4.904;2023-10-08T01:04:25;15.80;99.90
11840;DHT22;5979;50.800;4.904;2023-10-08T01:06:59;15.80;99.90
11840;DHT22;5979;50.800;4.904;2023-10-08T01:09:30;15.80;99.90
11840;DHT22;5979;50.800;4.904;2023-10-08T01:12:17;15.70;99.90
11840;DHT22;5979;50.800;4.904;2023-10-08T01:14:46;15.70;99.90
11840;DHT22;5979;50.800;4.904;2023-10-08T01:17:16;15.70;99.90
11840;DHT22;5979;50.800;4.904;2023-10-08T01:19:44;15.60;99.90
11840;DHT22;5979;50.800;4.904;2023-10-08T01:22:14;15.60;99.90
11840;DHT22;5979;50.800;4.904;2023-10-08T01:24:45;15.60;99.90
11840;DHT22;5979;50.800;4.904;2023-10-08T01:27:17;15.60;99.90
11840;DHT22;5979;50.800;4.904;2023-10-08T01:29:47;15.60;99.90
11840;DHT22;5979;50.800;4.904;2023-10-08T01:32:21;15.60;99.90
11840;DHT22;5979;50.800;4.904;2023-10-08T01:34:48;15.60;99.90
11840;DHT22;5979;50.800;4.904;2023-10-08T01:37:15;15.60;99.90
11840;DHT22;5979;50.800;4.904;2023-10-08T01:39:45;15.60;99.90
11840;DHT22;5979;50.800;4.904;2023-10-08T01:42:11;15.50;99.90
11840;DHT22;5979;50.800;4.904;2023-10-08T01:44:47;15.50;99.90
11840;DHT22;5979;50.800;4.904;2023-10-08T01:47:14;15.50;99.90
11840;DHT22;5979;50.800;4.904;2023-10-08T01:49:42;15.50;99.90
11840;DHT22;5979;50.800;4.904;2023-10-08T01:52:10;15.50;99.90
11840;DHT22;5979;50.800;4.904;2023-10-08T01:54:49;15.40;99.90
11840;DHT22;5979;50.800;4.904;2023-10-08T01:57:15;15.40;99.90
11840;DHT22;5979;50.800;4.904;2023-10-08T01:59:42;15.40;99.90
11840;DHT22;5979;50.800;4.904;2023-10-08T02:02:09;15.40;99.90
11840;DHT22;5979;50.800;4.904;2023-10-08T02:04:36;15.30;99.90
11840;DHT22;5979;50.800;4.904;2023-10-08T02:07:03;15.20;99.90
11840;DHT22;5979;50.800;4.904;2023-10-08T02:09:38;15.20;99.90
11840;DHT22;5979;50.800;4.904;2023-10-08T02:12:04;15.20;99.90
11840;DHT22;5979;50.800;4.904;2023-10-08T02:14:30;15.20;99.90
11840;DHT22;5979;50.800;4.904;2023-10-08T02:16:58;15.20;99.90
11840;DHT22;5979;50.800;4.904;2023-10-08T02:19:27;15.20;99.90
11840;DHT22;5979;50.800;4.904;2023-10-08T02:21:53;15.20;99.90
11840;DHT22;5979;50.800;4.904;2023-10-08T02:24:20;15.20;99.90
11840;DHT22;5979;50.800;4.904;2023-10-08T02:26:47;15.20;99.90
11840;DHT22;5979;50.800;4.904;2023-10-08T02:29:13;15.20;99.90
11840;DHT22;5979;50.800;4.904;2023-10-08T02:31:40;15.20;99.90
11840;DHT22;5979;50.800;4.904;2023-10-08T02:34:06;15.20;99.90
11840;DHT22;5979;50.800;4.904;2023-10-08T02:36:39;15.20;99.90
11840;DHT22;5979;50.800;4.904;2023-10-08T02:39:08;15.20;99.90
11840;DHT22;5979;50.800;4.904;2023-10-08T02:41:43;15.10;99.90
11840;DHT22;5979;50.800;4.904;2023-10-08T02:44:15;15.10;99.90
11840;DHT22;5979;50.800;4.904;2023-10-08T02:46:46;15.10;99.90
11840;DHT22;5979;50.800;4.904;2023-10-08T02:49:15;15.10;99.90
11840;DHT22;5979;50.800;4.904;2023-10-08T02:51:50;15.10;99.90
11840;DHT22;5979;50.800;4.904;2023-10-08T02:54:17;15.10;99.90
11840;DHT22;5979;50.800;4.904;2023-10-08T02:56:48;15.10;99.90
11840;DHT22;5979;50.800;4.904;2023-10-08T02:59:17;15.10;99.90
11840;DHT22;5979;50.800;4.904;2023-10-08T03:01:43;15.10;99.90
11840;DHT22;5979;50.800;4.904;2023-10-08T03:04:10;15.20;99.90
11840;DHT22;5979;50.800;4.904;2023-10-08T03:06:48;15.10;99.90
11840;DHT22;5979;50.800;4.904;2023-10-08T03:09:21;15.10;99.90
11840;DHT22;5979;50.800;4.904;2023-10-08T03:11:50;15.20;99.90
11840;DHT22;5979;50.800;4.904;2023-10-08T03:14:16;15.20;99.90
11840;DHT22;5979;50.800;4.904;2023-10-08T03:16:53;15.20;99.90
11840;DHT22;5979;50.800;4.904;2023-10-08T03:19:21;15.20;99.90
11840;DHT22;5979;50.800;4.904;2023-10-08T03:21:48;15.20;99.90
11840;DHT22;5979;50.800;4.904;2023-10-08T03:24:17;15.20;99.90
11840;DHT22;5979;50.800;4.904;2023-10-08T03:26:59;15.20;99.90
11840;DHT22;5979;50.800;4.904;2023-10-08T03:29:43;15.20;99.90
11840;DHT22;5979;50.800;4.904;2023-10-08T03:32:10;15.20;99.90
11840;DHT22;5979;50.800;4.904;2023-10-08T03:34:47;15.20;99.90
11840;DHT22;5979;50.800;4.904;2023-10-08T03:37:15;15.20;99.90
11840;DHT22;5979;50.800;4.904;2023-10-08T03:39:49;15.30;99.90
11840;DHT22;5979;50.800;4.904;2023-10-08T03:42:45;15.30;99.90
11840;DHT22;5979;50.800;4.904;2023-10-08T03:45:15;15.30;99.90
11840;DHT22;5979;50.800;4.904;2023-10-08T03:47:48;15.30;99.90
11840;DHT22;5979;50.800;4.904;2023-10-08T03:50:28;15.30;99.90
11840;DHT22;5979;50.800;4.904;2023-10-08T03:53:07;15.30;99.90
11840;DHT22;5979;50.800;4.904;2023-10-08T03:55:39;15.30;99.90
11840;DHT22;5979;50.800;4.904;2023-10-08T03:58:07;15.30;99.90
11840;DHT22;5979;50.800;4.904;2023-10-08T04:00:37;15.30;99.90
11840;DHT22;5979;50.800;4.904;2023-10-08T04:03:10;15.20;99.90
11840;DHT22;5979;50.800;4.904;2023-10-08T04:05:37;15.30;99.90
11840;DHT22;5979;50.800;4.904;2023-10-08T04:08:15;15.20;99.90
11840;DHT22;5979;50.800;4.904;2023-10-08T04:10:50;15.20;99.90
11840;DHT22;5979;50.800;4.904;2023-10-08T04:13:38;15.20;99.90
11840;DHT22;5979;50.800;4.904;2023-10-08T04:16:10;15.20;99.90
11840;DHT22;5979;50.800;4.904;2023-10-08T04:18:36;15.20;99.90
11840;DHT22;5979;50.800;4.904;2023-10-08T04:21:06;15.20;99.90
11840;DHT22;5979;50.800;4.904;2023-10-08T04:23:39;15.20;99.90
11840;DHT22;5979;50.800;4.904;2023-10-08T04:26:05;15.10;99.90
11840;DHT22;5979;50.800;4.904;2023-10-08T04:28:32;15.10;99.90
11840;DHT22;5979;50.800;4.904;2023-10-08T04:31:00;15.10;99.90
11840;DHT22;5979;50.800;4.904;2023-10-08T04:33:41;15.10;99.90
11840;DHT22;5979;50.800;4.904;2023-10-08T04:36:07;15.10;99.90
11840;DHT22;5979;50.800;4.904;2023-10-08T04:38:33;15.10;99.90
11840;DHT22;5979;50.800;4.904;2023-10-08T04:41:05;15.10;99.90
11840;DHT22;5979;50.800;4.904;2023-10-08T04:43:35;15.10;99.90
11840;DHT22;5979;50.800;4.904;2023-10-08T04:46:04;15.10;99.90
11840;DHT22;5979;50.800;4.904;2023-10-08T04:48:47;15.00;99.90
11840;DHT22;5979;50.800;4.904;2023-10-08T04:51:12;15.00;99.90
11840;DHT22;5979;50.800;4.904;2023-10-08T04:53:39;15.00;99.90
11840;DHT22;5979;50.800;4.904;2023-10-08T04:56:10;15.00;99.90
11840;DHT22;5979;50.800;4.904;2023-10-08T04:58:49;14.90;99.90
11840;DHT22;5979;50.800;4.904;2023-10-08T05:01:19;14.90;99.90
11840;DHT22;5979;50.800;4.904;2023-10-08T05:04:03;14.80;99.90
11840;DHT22;5979;50.800;4.904;2023-10-08T05:06:32;14.80;99.90
11840;DHT22;5979;50.800;4.904;2023-10-08T05:09:09;14.80;99.90
11840;DHT22;5979;50.800;4.904;2023-10-08T05:11:45;14.70;99.90
11840;DHT22;5979;50.800;4.904;2023-10-08T05:14:11;14.70;99.90
11840;DHT22;5979;50.800;4.904;2023-10-08T05:16:56;14.70;99.90
11840;DHT22;5979;50.800;4.904;2023-10-08T05:19:48;14.70;99.90
11840;DHT22;5979;50.800;4.904;2023-10-08T05:22:37;14.60;99.90
11840;DHT22;5979;50.800;4.904;2023-10-08T05:25:02;14.60;99.90
11840;DHT22;5979;50.800;4.904;2023-10-08T05:27:52;14.60;99.90
11840;DHT22;5979;50.800;4.904;2023-10-08T05:30:26;14.50;99.90
11840;DHT22;5979;50.800;4.904;2023-10-08T05:33:05;14.50;99.90
11840;DHT22;5979;50.800;4.904;2023-10-08T05:35:42;14.40;99.90
11840;DHT22;5979;50.800;4.904;2023-10-08T05:38:20;14.40;99.90
11840;DHT22;5979;50.800;4.904;2023-10-08T05:40:56;14.30;99.90
11840;DHT22;5979;50.800;4.904;2023-10-08T05:43:38;14.20;99.90
11840;DHT22;5979;50.800;4.904;2023-10-08T05:46:12;14.20;99.90
11840;DHT22;5979;50.800;4.904;2023-10-08T05:49:04;14.10;99.90
11840;DHT22;5979;50.800;4.904;2023-10-08T05:51:38;14.10;99.90
11840;DHT22;5979;50.800;4.904;2023-10-08T05:54:31;14.10;99.90
11840;DHT22;5979;50.800;4.904;2023-10-08T05:57:01;14.10;99.90
11840;DHT22;5979;50.800;4.904;2023-10-08T05:59:50;14.10;99.90
11840;DHT22;5979;50.800;4.904;2023-10-08T06:02:26;14.20;99.90
11840;DHT22;5979;50.800;4.904;2023-10-08T06:05:02;14.20;99.90
11840;DHT22;5979;50.800;4.904;2023-10-08T06:07:51;14.20;99.90
11840;DHT22;5979;50.800;4.904;2023-10-08T06:10:25;14.20;99.90
11840;DHT22;5979;50.800;4.904;2023-10-08T06:12:59;14.30;99.90
11840;DHT22;5979;50.800;4.904;2023-10-08T06:15:46;14.30;99.90
11840;DHT22;5979;50.800;4.904;2023-10-08T06:18:29;14.40;99.90
11840;DHT22;5979;50.800;4.904;2023-10-08T06:21:02;14.40;99.90
11840;DHT22;5979;50.800;4.904;2023-10-08T06:23:35;14.40;99.90
11840;DHT22;5979;50.800;4.904;2023-10-08T06:26:02;14.50;99.90
11840;DHT22;5979;50.800;4.904;2023-10-08T06:28:42;14.60;99.90
11840;DHT22;5979;50.800;4.904;2023-10-08T06:31:09;14.60;99.90
11840;DHT22;5979;50.800;4.904;2023-10-08T06:33:42;14.70;99.90
11840;DHT22;5979;50.800;4.904;2023-10-08T06:36:09;14.80;99.90
11840;DHT22;5979;50.800;4.904;2023-10-08T06:38:44;14.80;99.90
11840;DHT22;5979;50.800;4.904;2023-10-08T06:41:14;15.00;99.90
11840;DHT22;5979;50.800;4.904;2023-10-08T06:43:47;15.00;99.90
11840;DHT22;5979;50.800;4.904;2023-10-08T06:46:28;15.10;99.90
11840;DHT22;5979;50.800;4.904;2023-10-08T06:48:54;15.20;99.90
11840;DHT22;5979;50.800;4.904;2023-10-08T06:51:20;15.30;99.90
11840;DHT22;5979;50.800;4.904;2023-10-08T06:53:47;15.40;99.90
11840;DHT22;5979;50.800;4.904;2023-10-08T06:56:14;15.50;99.90
11840;DHT22;5979;50.800;4.904;2023-10-08T06:58:42;15.60;99.90
11840;DHT22;5979;50.800;4.904;2023-10-08T07:01:12;15.70;99.90
11840;DHT22;5979;50.800;4.904;2023-10-08T07:03:38;15.80;99.90
11840;DHT22;5979;50.800;4.904;2023-10-08T07:06:04;15.90;99.90
11840;DHT22;5979;50.800;4.904;2023-10-08T07:08:42;16.00;99.90
11840;DHT22;5979;50.800;4.904;2023-10-08T07:11:08;16.10;99.90
11840;DHT22;5979;50.800;4.904;2023-10-08T07:13:37;16.10;99.90
11840;DHT22;5979;50.800;4.904;2023-10-08T07:16:05;16.20;99.90
11840;DHT22;5979;50.800;4.904;2023-10-08T07:18:33;16.20;99.90
11840;DHT22;5979;50.800;4.904;2023-10-08T07:21:00;16.30;99.90
11840;DHT22;5979;50.800;4.904;2023-10-08T07:23:37;16.40;99.90
11840;DHT22;5979;50.800;4.904;2023-10-08T07:26:19;16.60;99.90
11840;DHT22;5979;50.800;4.904;2023-10-08T07:28:50;16.70;99.90
11840;DHT22;5979;50.800;4.904;2023-10-08T07:31:21;16.70;99.90
11840;DHT22;5979;50.800;4.904;2023-10-08T07:33:48;16.70;99.90
11840;DHT22;5979;50.800;4.904;2023-10-08T07:36:30;16.80;99.90
11840;DHT22;5979;50.800;4.904;2023-10-08T07:38:56;16.90;99.90
11840;DHT22;5979;50.800;4.904;2023-10-08T07:41:22;17.00;99.90
11840;DHT22;5979;50.800;4.904;2023-10-08T07:43:49;17.00;99.90
11840;DHT22;5979;50.800;4.904;2023-10-08T07:46:27;17.10;99.90
11840;DHT22;5979;50.800;4.904;2023-10-08T07:48:54;17.20;99.90
11840;DHT22;5979;50.800;4.904;2023-10-08T07:51:20;17.30;99.90
11840;DHT22;5979;50.800;4.904;2023-10-08T07:53:52;17.40;99.90
11840;DHT22;5979;50.800;4.904;2023-10-08T07:56:24;17.50;99.90
11840;DHT22;5979;50.800;4.904;2023-10-08T07:58:50;17.60;99.90
11840;DHT22;5979;50.800;4.904;2023-10-08T08:01:16;17.70;99.90
11840;DHT22;5979;50.800;4.904;2023-10-08T08:03:42;17.80;99.90
11840;DHT22;5979;50.800;4.904;2023-10-08T08:06:10;17.90;99.90
11840;DHT22;5979;50.800;4.904;2023-10-08T08:08:36;18.10;99.90
11840;DHT22;5979;50.800;4.904;2023-10-08T08:11:06;18.20;99.90
11840;DHT22;5979;50.800;4.904;2023-10-08T08:13:52;18.40;99.90
11840;DHT22;5979;50.800;4.904;2023-10-08T08:16:18;18.50;99.90
11840;DHT22;5979;50.800;4.904;2023-10-08T08:18:53;18.60;99.90
11840;DHT22;5979;50.800;4.904;2023-10-08T08:21:23;18.70;99.90
11840;DHT22;5979;50.800;4.904;2023-10-08T08:23:49;18.90;99.90
11840;DHT22;5979;50.800;4.904;2023-10-08T08:29:01;19.00;99.90
11840;DHT22;5979;50.800;4.904;2023-10-08T08:31:31;19.10;99.90
11840;DHT22;5979;50.800;4.904;2023-10-08T08:34:01;19.20;99.90
11840;DHT22;5979;50.800;4.904;2023-10-08T08:36:31;19.20;99.90
11840;DHT22;5979;50.800;4.904;2023-10-08T08:38:57;19.20;99.90
11840;DHT22;5979;50.800;4.904;2023-10-08T08:41:23;19.30;99.90
11840;DHT22;5979;50.800;4.904;2023-10-08T08:46:15;19.50;99.90
11840;DHT22;5979;50.800;4.904;2023-10-08T08:48:43;19.60;99.90
11840;DHT22;5979;50.800;4.904;2023-10-08T08:51:12;19.70;99.90
11840;DHT22;5979;50.800;4.904;2023-10-08T08:53:39;19.80;99.90
11840;DHT22;5979;50.800;4.904;2023-10-08T08:56:07;19.90;99.90
11840;DHT22;5979;50.800;4.904;2023-10-08T08:58:35;20.10;99.90
11840;DHT22;5979;50.800;4.904;2023-10-08T09:01:02;20.10;99.90
11840;DHT22;5979;50.800;4.904;2023-10-08T09:03:29;20.20;99.90
11840;DHT22;5979;50.800;4.904;2023-10-08T09:05:58;20.30;99.90
11840;DHT22;5979;50.800;4.904;2023-10-08T09:08:32;20.40;99.90
11840;DHT22;5979;50.800;4.904;2023-10-08T09:10:59;20.50;99.90
11840;DHT22;5979;50.800;4.904;2023-10-08T09:13:31;20.50;99.90
11840;DHT22;5979;50.800;4.904;2023-10-08T09:16:08;20.60;99.90
11840;DHT22;5979;50.800;4.904;2023-10-08T09:18:36;20.60;99.90
11840;DHT22;5979;50.800;4.904;2023-10-08T09:21:13;20.70;99.90
11840;DHT22;5979;50.800;4.904;2023-10-08T09:23:43;20.70;99.90
11840;DHT22;5979;50.800;4.904;2023-10-08T09:26:13;20.70;99.90
11840;DHT22;5979;50.800;4.904;2023-10-08T09:28:44;20.70;99.90
11840;DHT22;5979;50.800;4.904;2023-10-08T09:31:12;20.70;99.90
11840;DHT22;5979;50.800;4.904;2023-10-08T09:33:39;20.70;99.90
11840;DHT22;5979;50.800;4.904;2023-10-08T09:36:06;20.70;99.90
11840;DHT22;5979;50.800;4.904;2023-10-08T09:38:36;20.70;99.90
11840;DHT22;5979;50.800;4.904;2023-10-08T09:41:03;20.60;99.90
11840;DHT22;5979;50.800;4.904;2023-10-08T09:43:32;20.60;99.90
11840;DHT22;5979;50.800;4.904;2023-10-08T09:48:41;20.70;99.90
11840;DHT22;5979;50.800;4.904;2023-10-08T09:51:10;20.70;99.90
11840;DHT22;5979;50.800;4.904;2023-10-08T09:53:49;20.80;99.90
11840;DHT22;5979;50.800;4.904;2023-10-08T09:56:19;21.00;99.90
11840;DHT22;5979;50.800;4.904;2023-10-08T09:58:46;21.10;99.90
11840;DHT22;5979;50.800;4.904;2023-10-08T10:01:14;21.20;99.90
11840;DHT22;5979;50.800;4.904;2023-10-08T10:03:44;21.30;99.90
11840;DHT22;5979;50.800;4.904;2023-10-08T10:06:18;21.40;99.90
11840;DHT22;5979;50.800;4.904;2023-10-08T10:08:48;21.60;99.90
11840;DHT22;5979;50.800;4.904;2023-10-08T10:11:15;21.80;99.90
11840;DHT22;5979;50.800;4.904;2023-10-08T10:13:50;22.10;99.90
11840;DHT22;5979;50.800;4.904;2023-10-08T10:16:23;22.30;99.90
11840;DHT22;5979;50.800;4.904;2023-10-08T10:18:49;22.60;99.90
11840;DHT22;5979;50.800;4.904;2023-10-08T10:23:44;23.00;99.90
11840;DHT22;5979;50.800;4.904;2023-10-08T10:26:36;23.10;99.90
11840;DHT22;5979;50.800;4.904;2023-10-08T10:31:58;23.20;99.90
11840;DHT22;5979;50.800;4.904;2023-10-08T10:34:26;23.30;99.90
11840;DHT22;5979;50.800;4.904;2023-10-08T10:36:57;23.40;99.90
11840;DHT22;5979;50.800;4.904;2023-10-08T10:39:34;23.50;99.90
11840;DHT22;5979;50.800;4.904;2023-10-08T10:42:05;23.40;99.90
11840;DHT22;5979;50.800;4.904;2023-10-08T10:44:33;23.20;99.90
11840;DHT22;5979;50.800;4.904;2023-10-08T10:47:03;23.20;99.90
11840;DHT22;5979;50.800;4.904;2023-10-08T10:49:41;23.20;99.90
11840;DHT22;5979;50.800;4.904;2023-10-08T10:52:35;23.40;99.90
11840;DHT22;5979;50.800;4.904;2023-10-08T10:55:11;23.50;99.90
11840;DHT22;5979;50.800;4.904;2023-10-08T10:57:54;23.60;99.90
11840;DHT22;5979;50.800;4.904;2023-10-08T11:00:44;23.60;99.90
11840;DHT22;5979;50.800;4.904;2023-10-08T11:03:10;23.70;99.90
11840;DHT22;5979;50.800;4.904;2023-10-08T11:05:43;23.80;99.90
11840;DHT22;5979;50.800;4.904;2023-10-08T11:08:14;23.90;99.90
11840;DHT22;5979;50.800;4.904;2023-10-08T11:10:42;23.90;99.90
11840;DHT22;5979;50.800;4.904;2023-10-08T11:13:21;24.00;99.90
11840;DHT22;5979;50.800;4.904;2023-10-08T11:15:54;24.00;99.90
11840;DHT22;5979;50.800;4.904;2023-10-08T11:18:22;24.00;99.90
11840;DHT22;5979;50.800;4.904;2023-10-08T11:20:50;24.00;99.90
11840;DHT22;5979;50.800;4.904;2023-10-08T11:23:36;24.00;99.90
11840;DHT22;5979;50.800;4.904;2023-10-08T11:26:05;24.00;99.90
11840;DHT22;5979;50.800;4.904;2023-10-08T11:28:33;24.00;99.90
11840;DHT22;5979;50.800;4.904;2023-10-08T11:31:07;24.00;99.90
11840;DHT22;5979;50.800;4.904;2023-10-08T11:33:39;24.00;99.90
11840;DHT22;5979;50.800;4.904;2023-10-08T11:36:06;24.10;99.90
11840;DHT22;5979;50.800;4.904;2023-10-08T11:38:40;24.00;99.90
11840;DHT22;5979;50.800;4.904;2023-10-08T11:41:13;24.00;99.90
11840;DHT22;5979;50.800;4.904;2023-10-08T11:43:50;24.10;99.90
11840;DHT22;5979;50.800;4.904;2023-10-08T11:46:26;24.10;99.90
11840;DHT22;5979;50.800;4.904;2023-10-08T11:49:02;24.10;99.90
11840;DHT22;5979;50.800;4.904;2023-10-08T11:51:35;24.10;99.90
11840;DHT22;5979;50.800;4.904;2023-10-08T11:54:01;24.10;99.90
11840;DHT22;5979;50.800;4.904;2023-10-08T11:56:30;24.00;99.90
11840;DHT22;5979;50.800;4.904;2023-10-08T11:58:57;24.00;99.90
11840;DHT22;5979;50.800;4.904;2023-10-08T12:01:26;23.90;99.90
11840;DHT22;5979;50.800;4.904;2023-10-08T12:03:55;23.80;99.90
11840;DHT22;5979;50.800;4.904;2023-10-08T12:06:25;23.80;99.90
11840;DHT22;5979;50.800;4.904;2023-10-08T12:08:55;23.80;99.90
11840;DHT22;5979;50.800;4.904;2023-10-08T12:11:25;23.80;99.90
11840;DHT22;5979;50.800;4.904;2023-10-08T12:13:58;23.80;99.90
11840;DHT22;5979;50.800;4.904;2023-10-08T12:16:26;23.80;99.90
11840;DHT22;5979;50.800;4.904;2023-10-08T12:18:56;23.80;99.90
11840;DHT22;5979;50.800;4.904;2023-10-08T12:21:28;23.80;99.90
11840;DHT22;5979;50.800;4.904;2023-10-08T12:23:58;23.90;99.90
11840;DHT22;5979;50.800;4.904;2023-10-08T12:26:24;23.80;99.90
11840;DHT22;5979;50.800;4.904;2023-10-08T12:28:50;23.80;99.90
11840;DHT22;5979;50.800;4.904;2023-10-08T12:31:19;23.80;99.90
11840;DHT22;5979;50.800;4.904;2023-10-08T12:33:50;23.80;99.90
11840;DHT22;5979;50.800;4.904;2023-10-08T12:36:19;23.80;99.90
11840;DHT22;5979;50.800;4.904;2023-10-08T12:38:49;23.70;99.90
11840;DHT22;5979;50.800;4.904;2023-10-08T12:41:15;23.60;99.90
11840;DHT22;5979;50.800;4.904;2023-10-08T12:43:44;23.60;99.90
11840;DHT22;5979;50.800;4.904;2023-10-08T12:46:14;23.60;99.90
11840;DHT22;5979;50.800;4.904;2023-10-08T12:48:50;23.50;99.90
11840;DHT22;5979;50.800;4.904;2023-10-08T12:51:25;23.50;99.90
11840;DHT22;5979;50.800;4.904;2023-10-08T12:53:52;23.50;99.90
11840;DHT22;5979;50.800;4.904;2023-10-08T12:56:44;23.50;99.90
11840;DHT22;5979;50.800;4.904;2023-10-08T12:59:14;23.50;99.90
11840;DHT22;5979;50.800;4.904;2023-10-08T13:01:46;23.50;99.90
11840;DHT22;5979;50.800;4.904;2023-10-08T13:04:17;23.60;99.90
11840;DHT22;5979;50.800;4.904;2023-10-08T13:06:50;23.60;99.90
11840;DHT22;5979;50.800;4.904;2023-10-08T13:09:16;23.60;99.90
11840;DHT22;5979;50.800;4.904;2023-10-08T13:11:42;23.60;99.90
11840;DHT22;5979;50.800;4.904;2023-10-08T13:14:08;23.60;99.90
11840;DHT22;5979;50.800;4.904;2023-10-08T13:16:34;23.50;99.90
11840;DHT22;5979;50.800;4.904;2023-10-08T13:19:03;23.50;99.90
11840;DHT22;5979;50.800;4.904;2023-10-08T13:21:29;23.50;99.90
11840;DHT22;5979;50.800;4.904;2023-10-08T13:23:57;23.50;99.90
11840;DHT22;5979;50.800;4.904;2023-10-08T13:26:23;23.50;99.90
11840;DHT22;5979;50.800;4.904;2023-10-08T13:28:50;23.50;99.90
11840;DHT22;5979;50.800;4.904;2023-10-08T13:31:16;23.50;99.90
11840;DHT22;5979;50.800;4.904;2023-10-08T13:33:44;23.50;99.90
11840;DHT22;5979;50.800;4.904;2023-10-08T13:36:15;23.40;99.90
11840;DHT22;5979;50.800;4.904;2023-10-08T13:38:42;23.40;99.90
11840;DHT22;5979;50.800;4.904;2023-10-08T13:41:08;23.40;99.90
11840;DHT22;5979;50.800;4.904;2023-10-08T13:43:50;23.30;99.90
11840;DHT22;5979;50.800;4.904;2023-10-08T13:46:27;23.30;99.90
11840;DHT22;5979;50.800;4.904;2023-10-08T13:48:53;23.30;99.90
11840;DHT22;5979;50.800;4.904;2023-10-08T13:51:20;23.30;99.90
11840;DHT22;5979;50.800;4.904;2023-10-08T13:53:50;23.20;99.90
11840;DHT22;5979;50.800;4.904;2023-10-08T13:56:20;23.10;99.90
11840;DHT22;5979;50.800;4.904;2023-10-08T13:58:51;23.10;99.90
11840;DHT22;5979;50.800;4.904;2023-10-08T14:01:21;23.10;99.90
11840;DHT22;5979;50.800;4.904;2023-10-08T14:03:50;23.00;99.90
11840;DHT22;5979;50.800;4.904;2023-10-08T14:06:21;23.00;99.90
11840;DHT22;5979;50.800;4.904;2023-10-08T14:08:48;23.00;99.90
11840;DHT22;5979;50.800;4.904;2023-10-08T14:11:23;23.00;99.90
11840;DHT22;5979;50.800;4.904;2023-10-08T14:13:56;23.00;99.90
11840;DHT22;5979;50.800;4.904;2023-10-08T14:16:22;22.90;99.90
11840;DHT22;5979;50.800;4.904;2023-10-08T14:18:55;22.90;99.90
11840;DHT22;5979;50.800;4.904;2023-10-08T14:21:21;22.90;99.90
11840;DHT22;5979;50.800;4.904;2023-10-08T14:23:50;23.00;99.90
11840;DHT22;5979;50.800;4.904;2023-10-08T14:26:18;23.00;99.90
11840;DHT22;5979;50.800;4.904;2023-10-08T14:28:47;23.10;99.90
11840;DHT22;5979;50.800;4.904;2023-10-08T14:31:18;23.10;99.90
11840;DHT22;5979;50.800;4.904;2023-10-08T14:33:49;23.10;99.90
11840;DHT22;5979;50.800;4.904;2023-10-08T14:36:35;23.20;99.90
11840;DHT22;5979;50.800;4.904;2023-10-08T14:39:19;23.20;99.90
11840;DHT22;5979;50.800;4.904;2023-10-08T14:42:03;23.20;99.90
11840;DHT22;5979;50.800;4.904;2023-10-08T14:44:47;23.30;99.90
11840;DHT22;5979;50.800;4.904;2023-10-08T14:47:16;23.40;99.90
11840;DHT22;5979;50.800;4.904;2023-10-08T14:49:42;23.40;99.90
11840;DHT22;5979;50.800;4.904;2023-10-08T14:52:17;23.40;99.90
11840;DHT22;5979;50.800;4.904;2023-10-08T14:54:42;23.40;99.90
11840;DHT22;5979;50.800;4.904;2023-10-08T14:57:08;23.40;99.90
11840;DHT22;5979;50.800;4.904;2023-10-08T14:59:35;23.40;99.90
11840;DHT22;5979;50.800;4.904;2023-10-08T15:02:01;23.40;99.90
11840;DHT22;5979;50.800;4.904;2023-10-08T15:04:27;23.30;99.90
11840;DHT22;5979;50.800;4.904;2023-10-08T15:06:54;23.30;99.90
11840;DHT22;5979;50.800;4.904;2023-10-08T15:09:21;23.30;99.90
11840;DHT22;5979;50.800;4.904;2023-10-08T15:11:52;23.20;99.90
11840;DHT22;5979;50.800;4.904;2023-10-08T15:14:19;23.20;99.90
11840;DHT22;5979;50.800;4.904;2023-10-08T15:16:45;23.20;99.90
11840;DHT22;5979;50.800;4.904;2023-10-08T15:19:23;23.10;99.90
11840;DHT22;5979;50.800;4.904;2023-10-08T15:21:50;23.10;99.90
11840;DHT22;5979;50.800;4.904;2023-10-08T15:24:22;23.10;99.90
11840;DHT22;5979;50.800;4.904;2023-10-08T15:26:48;23.10;99.90
11840;DHT22;5979;50.800;4.904;2023-10-08T15:29:15;23.10;99.90
11840;DHT22;5979;50.800;4.904;2023-10-08T15:31:42;23.00;99.90
11840;DHT22;5979;50.800;4.904;2023-10-08T15:34:08;23.00;99.90
11840;DHT22;5979;50.800;4.904;2023-10-08T15:36:34;22.90;99.90
11840;DHT22;5979;50.800;4.904;2023-10-08T15:39:00;22.90;99.90
11840;DHT22;5979;50.800;4.904;2023-10-08T15:41:26;22.80;99.90
11840;DHT22;5979;50.800;4.904;2023-10-08T15:43:53;22.80;99.90
11840;DHT22;5979;50.800;4.904;2023-10-08T15:46:26;22.70;99.90
11840;DHT22;5979;50.800;4.904;2023-10-08T15:48:53;22.60;99.90
11840;DHT22;5979;50.800;4.904;2023-10-08T15:51:19;22.60;99.90
11840;DHT22;5979;50.800;4.904;2023-10-08T15:53:45;22.50;99.90
11840;DHT22;5979;50.800;4.904;2023-10-08T15:56:11;22.50;99.90
11840;DHT22;5979;50.800;4.904;2023-10-08T15:58:36;22.40;99.90
11840;DHT22;5979;50.800;4.904;2023-10-08T16:01:02;22.40;99.90
11840;DHT22;5979;50.800;4.904;2023-10-08T16:03:28;22.30;99.90
11840;DHT22;5979;50.800;4.904;2023-10-08T16:05:53;22.30;99.90
11840;DHT22;5979;50.800;4.904;2023-10-08T16:08:20;22.20;99.90
11840;DHT22;5979;50.800;4.904;2023-10-08T16:10:46;22.20;99.90
11840;DHT22;5979;50.800;4.904;2023-10-08T16:13:12;22.10;99.90
11840;DHT22;5979;50.800;4.904;2023-10-08T16:15:39;22.10;99.90
11840;DHT22;5979;50.800;4.904;2023-10-08T16:18:06;22.10;99.90
11840;DHT22;5979;50.800;4.904;2023-10-08T16:20:32;22.00;99.90
11840;DHT22;5979;50.800;4.904;2023-10-08T16:22:57;21.90;99.90